sensor_id;sensor_type;location;lat;lon;timestamp;P1;durP1;ratioP1;P2;durP2;ratioP2
1837;SDS011;918;50.796;6.772;2023-07-30T00:01:01;3.67;;;3.37;;
1837;SDS011;918;50.796;6.772;2023-07-30T00:03:26;6.03;;;4.97;;
1837;SDS011;918;50.796;6.772;2023-07-30T00:05:52;5.50;;;5.00;;
1837;SDS011;918;50.796;6.772;2023-07-30T00:08:18;5.50;;;4.73;;
1837;SDS011;918;50.796;6.772;2023-07-30T00:10:44;6.17;;;5.60;;
1837;SDS011;918;50.796;6.772;2023-07-30T00:13:09;5.13;;;4.53;;
1837;SDS011;918;50.796;6.772;2023-07-30T00:15:34;5.30;;;4.00;;
1837;SDS011;918;50.796;6.772;2023-07-30T00:17:59;6.77;;;4.30;;
1837;SDS011;918;50.796;6.772;2023-07-30T00:20:25;4.13;;;3.73;;
1837;SDS011;918;50.796;6.772;2023-07-30T00:22:50;4.27;;;3.83;;
1837;SDS011;918;50.796;6.772;2023-07-30T00:25:15;4.97;;;4.30;;
1837;SDS011;918;50.796;6.772;2023-07-30T00:27:40;3.77;;;3.47;;
1837;SDS011;918;50.796;6.772;2023-07-30T00:30:06;3.70;;;3.40;;
1837;SDS011;918;50.796;6.772;2023-07-30T00:32:31;3.33;;;2.93;;
1837;SDS011;918;50.796;6.772;2023-07-30T00:34:57;4.90;;;3.63;;
1837;SDS011;918;50.796;6.772;2023-07-30T00:37:22;3.53;;;3.20;;
1837;SDS011;918;50.796;6.772;2023-07-30T00:39:47;5.00;;;2.80;;
1837;SDS011;918;50.796;6.772;2023-07-30T00:42:12;2.77;;;2.57;;
1837;SDS011;918;50.796;6.772;2023-07-30T00:44:38;4.10;;;2.90;;
1837;SDS011;918;50.796;6.772;2023-07-30T00:47:03;4.00;;;3.27;;
1837;SDS011;918;50.796;6.772;2023-07-30T00:49:28;4.13;;;3.00;;
1837;SDS011;918;50.796;6.772;2023-07-30T00:51:54;5.70;;;3.43;;
1837;SDS011;918;50.796;6.772;2023-07-30T00:54:21;3.93;;;3.27;;
1837;SDS011;918;50.796;6.772;2023-07-30T00:56:49;5.83;;;3.60;;
1837;SDS011;918;50.796;6.772;2023-07-30T00:59:16;3.20;;;3.00;;
1837;SDS011;918;50.796;6.772;2023-07-30T01:01:41;5.03;;;3.30;;
1837;SDS011;918;50.796;6.772;2023-07-30T01:04:06;4.23;;;3.60;;
1837;SDS011;918;50.796;6.772;2023-07-30T01:06:32;3.90;;;3.60;;
1837;SDS011;918;50.796;6.772;2023-07-30T01:08:58;3.33;;;3.13;;
1837;SDS011;918;50.796;6.772;2023-07-30T01:11:23;3.10;;;2.90;;
1837;SDS011;918;50.796;6.772;2023-07-30T01:13:48;9.30;;;3.77;;
1837;SDS011;918;50.796;6.772;2023-07-30T01:16:14;3.40;;;3.07;;
1837;SDS011;918;50.796;6.772;2023-07-30T01:18:39;3.43;;;3.13;;
1837;SDS011;918;50.796;6.772;2023-07-30T01:21:04;4.73;;;3.30;;
1837;SDS011;918;50.796;6.772;2023-07-30T01:23:29;3.47;;;3.27;;
1837;SDS011;918;50.796;6.772;2023-07-30T01:26:03;3.53;;;3.23;;
1837;SDS011;918;50.796;6.772;2023-07-30T01:28:33;3.27;;;3.00;;
1837;SDS011;918;50.796;6.772;2023-07-30T01:31:02;4.03;;;3.60;;
1837;SDS011;918;50.796;6.772;2023-07-30T01:33:28;3.87;;;3.47;;
1837;SDS011;918;50.796;6.772;2023-07-30T01:35:54;4.00;;;3.70;;
1837;SDS011;918;50.796;6.772;2023-07-30T01:38:20;3.60;;;3.30;;
1837;SDS011;918;50.796;6.772;2023-07-30T01:40:46;3.23;;;3.00;;
1837;SDS011;918;50.796;6.772;2023-07-30T01:43:11;7.17;;;3.20;;
1837;SDS011;918;50.796;6.772;2023-07-30T01:45:37;3.83;;;3.30;;
1837;SDS011;918;50.796;6.772;2023-07-30T01:48:02;3.60;;;3.30;;
1837;SDS011;918;50.796;6.772;2023-07-30T01:50:27;4.53;;;2.70;;
1837;SDS011;918;50.796;6.772;2023-07-30T01:52:52;3.00;;;2.77;;
1837;SDS011;918;50.796;6.772;2023-07-30T01:55:18;4.33;;;3.40;;
1837;SDS011;918;50.796;6.772;2023-07-30T01:57:43;2.83;;;2.63;;
1837;SDS011;918;50.796;6.772;2023-07-30T02:00:08;5.20;;;3.13;;
1837;SDS011;918;50.796;6.772;2023-07-30T02:02:34;3.77;;;3.47;;
1837;SDS011;918;50.796;6.772;2023-07-30T02:05:00;3.90;;;3.63;;
1837;SDS011;918;50.796;6.772;2023-07-30T02:07:25;3.43;;;2.73;;
1837;SDS011;918;50.796;6.772;2023-07-30T02:09:51;3.80;;;3.40;;
1837;SDS011;918;50.796;6.772;2023-07-30T02:12:16;3.47;;;3.17;;
1837;SDS011;918;50.796;6.772;2023-07-30T02:14:41;4.13;;;2.97;;
1837;SDS011;918;50.796;6.772;2023-07-30T02:17:06;3.07;;;2.87;;
1837;SDS011;918;50.796;6.772;2023-07-30T02:19:32;5.13;;;3.67;;
1837;SDS011;918;50.796;6.772;2023-07-30T02:21:57;4.33;;;2.83;;
1837;SDS011;918;50.796;6.772;2023-07-30T02:24:22;3.60;;;3.30;;
1837;SDS011;918;50.796;6.772;2023-07-30T02:26:47;5.67;;;2.97;;
1837;SDS011;918;50.796;6.772;2023-07-30T02:29:13;2.70;;;2.50;;
1837;SDS011;918;50.796;6.772;2023-07-30T02:31:38;5.17;;;3.00;;
1837;SDS011;918;50.796;6.772;2023-07-30T02:34:04;4.90;;;3.30;;
1837;SDS011;918;50.796;6.772;2023-07-30T02:36:29;3.40;;;3.10;;
1837;SDS011;918;50.796;6.772;2023-07-30T02:38:54;4.10;;;3.40;;
1837;SDS011;918;50.796;6.772;2023-07-30T02:41:19;3.23;;;2.97;;
1837;SDS011;918;50.796;6.772;2023-07-30T02:43:45;3.13;;;2.83;;
1837;SDS011;918;50.796;6.772;2023-07-30T02:46:10;3.17;;;2.90;;
1837;SDS011;918;50.796;6.772;2023-07-30T02:48:35;3.43;;;3.13;;
1837;SDS011;918;50.796;6.772;2023-07-30T02:51:00;8.07;;;3.50;;
1837;SDS011;918;50.796;6.772;2023-07-30T02:53:26;3.20;;;2.90;;
1837;SDS011;918;50.796;6.772;2023-07-30T02:55:51;4.33;;;3.37;;
1837;SDS011;918;50.796;6.772;2023-07-30T02:58:16;4.80;;;3.43;;
1837;SDS011;918;50.796;6.772;2023-07-30T03:00:41;3.87;;;3.47;;
1837;SDS011;918;50.796;6.772;2023-07-30T03:03:07;4.23;;;3.47;;
1837;SDS011;918;50.796;6.772;2023-07-30T03:05:32;3.47;;;3.17;;
1837;SDS011;918;50.796;6.772;2023-07-30T03:07:57;8.40;;;4.03;;
1837;SDS011;918;50.796;6.772;2023-07-30T03:10:22;3.90;;;3.47;;
1837;SDS011;918;50.796;6.772;2023-07-30T03:12:48;3.63;;;3.33;;
1837;SDS011;918;50.796;6.772;2023-07-30T03:15:13;5.80;;;3.40;;
1837;SDS011;918;50.796;6.772;2023-07-30T03:17:38;4.73;;;3.27;;
1837;SDS011;918;50.796;6.772;2023-07-30T03:20:03;3.20;;;2.90;;
1837;SDS011;918;50.796;6.772;2023-07-30T03:22:29;3.80;;;3.10;;
1837;SDS011;918;50.796;6.772;2023-07-30T03:24:55;3.60;;;2.90;;
1837;SDS011;918;50.796;6.772;2023-07-30T03:27:20;7.60;;;4.40;;
1837;SDS011;918;50.796;6.772;2023-07-30T03:29:45;4.53;;;3.40;;
1837;SDS011;918;50.796;6.772;2023-07-30T03:32:10;4.00;;;3.10;;
1837;SDS011;918;50.796;6.772;2023-07-30T03:34:36;4.10;;;3.47;;
1837;SDS011;918;50.796;6.772;2023-07-30T03:37:01;3.17;;;2.87;;
1837;SDS011;918;50.796;6.772;2023-07-30T03:39:26;5.17;;;3.63;;
1837;SDS011;918;50.796;6.772;2023-07-30T03:41:51;3.43;;;3.10;;
1837;SDS011;918;50.796;6.772;2023-07-30T03:44:17;3.47;;;3.17;;
1837;SDS011;918;50.796;6.772;2023-07-30T03:46:43;3.60;;;3.00;;
1837;SDS011;918;50.796;6.772;2023-07-30T03:49:08;6.40;;;3.10;;
1837;SDS011;918;50.796;6.772;2023-07-30T03:51:33;3.17;;;2.97;;
1837;SDS011;918;50.796;6.772;2023-07-30T03:53:59;3.23;;;2.60;;
1837;SDS011;918;50.796;6.772;2023-07-30T03:56:24;3.83;;;3.53;;
1837;SDS011;918;50.796;6.772;2023-07-30T03:58:50;6.00;;;3.13;;
1837;SDS011;918;50.796;6.772;2023-07-30T04:01:15;3.43;;;2.80;;
1837;SDS011;918;50.796;6.772;2023-07-30T04:03:40;3.77;;;2.63;;
1837;SDS011;918;50.796;6.772;2023-07-30T04:06:06;4.33;;;3.10;;
1837;SDS011;918;50.796;6.772;2023-07-30T04:08:31;3.47;;;3.17;;
1837;SDS011;918;50.796;6.772;2023-07-30T04:10:56;3.17;;;2.67;;
1837;SDS011;918;50.796;6.772;2023-07-30T04:13:22;5.93;;;2.60;;
1837;SDS011;918;50.796;6.772;2023-07-30T04:15:47;3.10;;;2.50;;
1837;SDS011;918;50.796;6.772;2023-07-30T04:18:13;3.23;;;2.60;;
1837;SDS011;918;50.796;6.772;2023-07-30T04:20:38;8.50;;;3.03;;
1837;SDS011;918;50.796;6.772;2023-07-30T04:23:03;4.10;;;3.03;;
1837;SDS011;918;50.796;6.772;2023-07-30T04:25:28;3.80;;;2.40;;
1837;SDS011;918;50.796;6.772;2023-07-30T04:27:54;6.13;;;2.67;;
1837;SDS011;918;50.796;6.772;2023-07-30T04:30:19;5.93;;;3.33;;
1837;SDS011;918;50.796;6.772;2023-07-30T04:32:44;7.00;;;2.20;;
1837;SDS011;918;50.796;6.772;2023-07-30T04:35:09;4.83;;;2.40;;
1837;SDS011;918;50.796;6.772;2023-07-30T04:37:35;5.60;;;3.03;;
1837;SDS011;918;50.796;6.772;2023-07-30T04:40:00;5.13;;;2.67;;
1837;SDS011;918;50.796;6.772;2023-07-30T04:42:25;4.90;;;2.83;;
1837;SDS011;918;50.796;6.772;2023-07-30T04:44:50;4.10;;;2.60;;
1837;SDS011;918;50.796;6.772;2023-07-30T04:47:16;3.87;;;3.07;;
1837;SDS011;918;50.796;6.772;2023-07-30T04:49:41;3.93;;;2.70;;
1837;SDS011;918;50.796;6.772;2023-07-30T04:52:07;3.43;;;2.60;;
1837;SDS011;918;50.796;6.772;2023-07-30T04:54:33;2.40;;;2.13;;
1837;SDS011;918;50.796;6.772;2023-07-30T04:56:58;5.30;;;2.63;;
1837;SDS011;918;50.796;6.772;2023-07-30T04:59:24;4.13;;;2.90;;
1837;SDS011;918;50.796;6.772;2023-07-30T05:01:49;4.60;;;2.70;;
1837;SDS011;918;50.796;6.772;2023-07-30T05:04:14;4.80;;;2.43;;
1837;SDS011;918;50.796;6.772;2023-07-30T05:06:39;4.20;;;2.57;;
1837;SDS011;918;50.796;6.772;2023-07-30T05:09:05;3.13;;;2.50;;
1837;SDS011;918;50.796;6.772;2023-07-30T05:11:30;7.13;;;2.83;;
1837;SDS011;918;50.796;6.772;2023-07-30T05:13:55;7.60;;;3.07;;
1837;SDS011;918;50.796;6.772;2023-07-30T05:16:20;12.20;;;3.27;;
1837;SDS011;918;50.796;6.772;2023-07-30T05:18:46;3.73;;;3.00;;
1837;SDS011;918;50.796;6.772;2023-07-30T05:21:11;7.63;;;2.87;;
1837;SDS011;918;50.796;6.772;2023-07-30T05:23:37;4.23;;;2.93;;
1837;SDS011;918;50.796;6.772;2023-07-30T05:26:02;5.93;;;2.63;;
1837;SDS011;918;50.796;6.772;2023-07-30T05:28:27;5.90;;;2.50;;
1837;SDS011;918;50.796;6.772;2023-07-30T05:30:52;3.07;;;2.33;;
1837;SDS011;918;50.796;6.772;2023-07-30T05:33:18;4.97;;;2.30;;
1837;SDS011;918;50.796;6.772;2023-07-30T05:35:43;4.23;;;2.80;;
1837;SDS011;918;50.796;6.772;2023-07-30T05:38:09;6.23;;;3.40;;
1837;SDS011;918;50.796;6.772;2023-07-30T05:40:35;4.53;;;3.80;;
1837;SDS011;918;50.796;6.772;2023-07-30T05:43:00;4.47;;;3.40;;
1837;SDS011;918;50.796;6.772;2023-07-30T05:45:26;7.70;;;4.27;;
1837;SDS011;918;50.796;6.772;2023-07-30T05:47:51;5.40;;;2.93;;
1837;SDS011;918;50.796;6.772;2023-07-30T05:50:16;5.77;;;3.40;;
1837;SDS011;918;50.796;6.772;2023-07-30T05:52:41;4.57;;;3.03;;
1837;SDS011;918;50.796;6.772;2023-07-30T05:55:07;4.13;;;2.90;;
1837;SDS011;918;50.796;6.772;2023-07-30T05:57:32;5.87;;;3.20;;
1837;SDS011;918;50.796;6.772;2023-07-30T05:59:57;5.87;;;2.90;;
1837;SDS011;918;50.796;6.772;2023-07-30T06:02:23;4.13;;;2.83;;
1837;SDS011;918;50.796;6.772;2023-07-30T06:04:48;5.30;;;3.37;;
1837;SDS011;918;50.796;6.772;2023-07-30T06:07:13;5.43;;;2.87;;
1837;SDS011;918;50.796;6.772;2023-07-30T06:09:39;4.87;;;3.00;;
1837;SDS011;918;50.796;6.772;2023-07-30T06:12:04;4.80;;;2.90;;
1837;SDS011;918;50.796;6.772;2023-07-30T06:14:30;4.13;;;3.00;;
1837;SDS011;918;50.796;6.772;2023-07-30T06:16:55;4.80;;;2.77;;
1837;SDS011;918;50.796;6.772;2023-07-30T06:19:20;8.17;;;3.50;;
1837;SDS011;918;50.796;6.772;2023-07-30T06:21:46;6.40;;;3.27;;
1837;SDS011;918;50.796;6.772;2023-07-30T06:24:11;5.57;;;3.67;;
1837;SDS011;918;50.796;6.772;2023-07-30T06:26:36;3.40;;;2.90;;
1837;SDS011;918;50.796;6.772;2023-07-30T06:29:02;3.17;;;2.60;;
1837;SDS011;918;50.796;6.772;2023-07-30T06:31:27;6.93;;;2.80;;
1837;SDS011;918;50.796;6.772;2023-07-30T06:33:52;3.37;;;2.50;;
1837;SDS011;918;50.796;6.772;2023-07-30T06:36:18;4.03;;;2.60;;
1837;SDS011;918;50.796;6.772;2023-07-30T06:38:43;5.73;;;2.47;;
1837;SDS011;918;50.796;6.772;2023-07-30T06:41:08;4.57;;;2.43;;
1837;SDS011;918;50.796;6.772;2023-07-30T06:43:33;3.90;;;2.70;;
1837;SDS011;918;50.796;6.772;2023-07-30T06:45:59;2.20;;;1.93;;
1837;SDS011;918;50.796;6.772;2023-07-30T06:48:24;6.60;;;2.70;;
1837;SDS011;918;50.796;6.772;2023-07-30T06:50:50;5.03;;;2.80;;
1837;SDS011;918;50.796;6.772;2023-07-30T06:53:15;2.83;;;1.87;;
1837;SDS011;918;50.796;6.772;2023-07-30T06:55:40;4.77;;;2.40;;
1837;SDS011;918;50.796;6.772;2023-07-30T06:58:05;3.60;;;2.30;;
1837;SDS011;918;50.796;6.772;2023-07-30T07:00:31;4.20;;;2.07;;
1837;SDS011;918;50.796;6.772;2023-07-30T07:02:56;3.50;;;2.17;;
1837;SDS011;918;50.796;6.772;2023-07-30T07:05:21;3.57;;;2.10;;
1837;SDS011;918;50.796;6.772;2023-07-30T07:07:47;2.10;;;1.87;;
1837;SDS011;918;50.796;6.772;2023-07-30T07:10:12;2.87;;;2.10;;
1837;SDS011;918;50.796;6.772;2023-07-30T07:12:38;3.33;;;2.00;;
1837;SDS011;918;50.796;6.772;2023-07-30T07:15:04;3.30;;;1.80;;
1837;SDS011;918;50.796;6.772;2023-07-30T07:17:29;2.73;;;2.00;;
1837;SDS011;918;50.796;6.772;2023-07-30T07:19:55;2.67;;;1.60;;
1837;SDS011;918;50.796;6.772;2023-07-30T07:22:20;4.83;;;2.87;;
1837;SDS011;918;50.796;6.772;2023-07-30T07:24:45;4.47;;;2.10;;
1837;SDS011;918;50.796;6.772;2023-07-30T07:27:11;3.97;;;2.10;;
1837;SDS011;918;50.796;6.772;2023-07-30T07:29:36;5.83;;;2.30;;
1837;SDS011;918;50.796;6.772;2023-07-30T07:32:02;4.20;;;2.23;;
1837;SDS011;918;50.796;6.772;2023-07-30T07:34:27;4.77;;;2.53;;
1837;SDS011;918;50.796;6.772;2023-07-30T07:36:53;5.70;;;2.40;;
1837;SDS011;918;50.796;6.772;2023-07-30T07:39:18;5.13;;;2.27;;
1837;SDS011;918;50.796;6.772;2023-07-30T07:41:44;3.07;;;2.23;;
1837;SDS011;918;50.796;6.772;2023-07-30T07:44:09;5.10;;;2.50;;
1837;SDS011;918;50.796;6.772;2023-07-30T07:46:35;9.53;;;3.20;;
1837;SDS011;918;50.796;6.772;2023-07-30T07:49:00;5.80;;;3.37;;
1837;SDS011;918;50.796;6.772;2023-07-30T07:51:25;3.97;;;2.20;;
1837;SDS011;918;50.796;6.772;2023-07-30T07:53:51;6.40;;;3.60;;
1837;SDS011;918;50.796;6.772;2023-07-30T07:56:16;5.67;;;2.70;;
1837;SDS011;918;50.796;6.772;2023-07-30T07:58:41;4.67;;;2.90;;
1837;SDS011;918;50.796;6.772;2023-07-30T08:01:08;4.30;;;2.50;;
1837;SDS011;918;50.796;6.772;2023-07-30T08:03:33;5.03;;;3.37;;
1837;SDS011;918;50.796;6.772;2023-07-30T08:05:58;4.43;;;2.83;;
1837;SDS011;918;50.796;6.772;2023-07-30T08:08:24;3.73;;;2.60;;
1837;SDS011;918;50.796;6.772;2023-07-30T08:10:50;3.80;;;2.70;;
1837;SDS011;918;50.796;6.772;2023-07-30T08:13:15;4.57;;;2.83;;
1837;SDS011;918;50.796;6.772;2023-07-30T08:15:41;3.60;;;2.80;;
1837;SDS011;918;50.796;6.772;2023-07-30T08:18:06;4.00;;;2.80;;
1837;SDS011;918;50.796;6.772;2023-07-30T08:20:31;7.20;;;3.50;;
1837;SDS011;918;50.796;6.772;2023-07-30T08:22:56;5.03;;;2.70;;
1837;SDS011;918;50.796;6.772;2023-07-30T08:25:22;4.87;;;3.57;;
1837;SDS011;918;50.796;6.772;2023-07-30T08:27:47;11.80;;;3.63;;
1837;SDS011;918;50.796;6.772;2023-07-30T08:30:12;5.37;;;2.57;;
1837;SDS011;918;50.796;6.772;2023-07-30T08:32:37;3.97;;;2.50;;
1837;SDS011;918;50.796;6.772;2023-07-30T08:35:03;9.87;;;3.40;;
1837;SDS011;918;50.796;6.772;2023-07-30T08:37:29;16.20;;;3.27;;
1837;SDS011;918;50.796;6.772;2023-07-30T08:39:54;9.10;;;3.53;;
1837;SDS011;918;50.796;6.772;2023-07-30T08:42:19;6.83;;;3.20;;
1837;SDS011;918;50.796;6.772;2023-07-30T08:44:45;6.43;;;2.43;;
1837;SDS011;918;50.796;6.772;2023-07-30T08:47:10;5.60;;;2.60;;
1837;SDS011;918;50.796;6.772;2023-07-30T08:49:36;3.77;;;2.30;;
1837;SDS011;918;50.796;6.772;2023-07-30T08:52:02;5.33;;;2.00;;
1837;SDS011;918;50.796;6.772;2023-07-30T08:54:29;5.17;;;2.33;;
1837;SDS011;918;50.796;6.772;2023-07-30T08:56:56;4.70;;;2.40;;
1837;SDS011;918;50.796;6.772;2023-07-30T08:59:22;3.57;;;2.70;;
1837;SDS011;918;50.796;6.772;2023-07-30T09:01:50;5.23;;;2.17;;
1837;SDS011;918;50.796;6.772;2023-07-30T09:04:17;6.10;;;2.87;;
1837;SDS011;918;50.796;6.772;2023-07-30T09:06:43;4.87;;;2.10;;
1837;SDS011;918;50.796;6.772;2023-07-30T09:09:11;5.10;;;2.03;;
1837;SDS011;918;50.796;6.772;2023-07-30T09:11:36;3.43;;;2.20;;
1837;SDS011;918;50.796;6.772;2023-07-30T09:14:02;3.50;;;2.20;;
1837;SDS011;918;50.796;6.772;2023-07-30T09:16:27;7.33;;;1.87;;
1837;SDS011;918;50.796;6.772;2023-07-30T09:18:53;5.13;;;2.43;;
1837;SDS011;918;50.796;6.772;2023-07-30T09:21:19;5.63;;;1.77;;
1837;SDS011;918;50.796;6.772;2023-07-30T09:23:45;3.00;;;2.40;;
1837;SDS011;918;50.796;6.772;2023-07-30T09:26:12;3.30;;;2.03;;
1837;SDS011;918;50.796;6.772;2023-07-30T09:28:39;6.30;;;2.63;;
1837;SDS011;918;50.796;6.772;2023-07-30T09:31:05;3.77;;;2.10;;
1837;SDS011;918;50.796;6.772;2023-07-30T09:33:32;3.67;;;2.00;;
1837;SDS011;918;50.796;6.772;2023-07-30T09:35:58;4.07;;;2.13;;
1837;SDS011;918;50.796;6.772;2023-07-30T09:38:23;6.60;;;1.93;;
1837;SDS011;918;50.796;6.772;2023-07-30T09:40:50;3.20;;;1.80;;
1837;SDS011;918;50.796;6.772;2023-07-30T09:43:16;3.83;;;2.13;;
1837;SDS011;918;50.796;6.772;2023-07-30T09:45:43;4.37;;;2.57;;
1837;SDS011;918;50.796;6.772;2023-07-30T09:48:10;5.83;;;2.50;;
1837;SDS011;918;50.796;6.772;2023-07-30T09:50:36;6.10;;;3.43;;
1837;SDS011;918;50.796;6.772;2023-07-30T09:53:02;4.20;;;2.67;;
1837;SDS011;918;50.796;6.772;2023-07-30T09:55:28;4.77;;;2.13;;
1837;SDS011;918;50.796;6.772;2023-07-30T09:57:54;9.47;;;2.30;;
1837;SDS011;918;50.796;6.772;2023-07-30T10:00:19;6.90;;;2.13;;
1837;SDS011;918;50.796;6.772;2023-07-30T10:02:49;6.50;;;2.13;;
1837;SDS011;918;50.796;6.772;2023-07-30T10:05:15;2.93;;;1.47;;
1837;SDS011;918;50.796;6.772;2023-07-30T10:07:44;5.67;;;2.47;;
1837;SDS011;918;50.796;6.772;2023-07-30T10:10:15;5.27;;;2.17;;
1837;SDS011;918;50.796;6.772;2023-07-30T10:12:40;3.43;;;2.40;;
1837;SDS011;918;50.796;6.772;2023-07-30T10:15:06;5.63;;;2.43;;
1837;SDS011;918;50.796;6.772;2023-07-30T10:17:32;2.87;;;2.10;;
1837;SDS011;918;50.796;6.772;2023-07-30T10:19:58;4.07;;;1.70;;
1837;SDS011;918;50.796;6.772;2023-07-30T10:22:42;3.60;;;2.00;;
1837;SDS011;918;50.796;6.772;2023-07-30T10:25:10;7.20;;;2.37;;
1837;SDS011;918;50.796;6.772;2023-07-30T10:27:39;3.13;;;2.10;;
1837;SDS011;918;50.796;6.772;2023-07-30T10:30:14;4.50;;;1.97;;
1837;SDS011;918;50.796;6.772;2023-07-30T10:32:41;3.30;;;2.70;;
1837;SDS011;918;50.796;6.772;2023-07-30T10:35:07;6.63;;;2.20;;
1837;SDS011;918;50.796;6.772;2023-07-30T10:37:33;3.00;;;1.93;;
1837;SDS011;918;50.796;6.772;2023-07-30T10:39:58;3.33;;;2.03;;
1837;SDS011;918;50.796;6.772;2023-07-30T10:42:24;4.30;;;2.00;;
1837;SDS011;918;50.796;6.772;2023-07-30T10:44:58;6.40;;;2.23;;
1837;SDS011;918;50.796;6.772;2023-07-30T10:47:24;3.57;;;2.10;;
1837;SDS011;918;50.796;6.772;2023-07-30T10:49:52;3.57;;;1.93;;
1837;SDS011;918;50.796;6.772;2023-07-30T10:52:18;2.20;;;1.40;;
1837;SDS011;918;50.796;6.772;2023-07-30T10:54:44;2.17;;;1.83;;
1837;SDS011;918;50.796;6.772;2023-07-30T10:57:09;2.47;;;1.57;;
1837;SDS011;918;50.796;6.772;2023-07-30T10:59:35;3.00;;;1.37;;
1837;SDS011;918;50.796;6.772;2023-07-30T11:02:01;3.87;;;1.53;;
1837;SDS011;918;50.796;6.772;2023-07-30T11:04:27;2.07;;;1.27;;
1837;SDS011;918;50.796;6.772;2023-07-30T11:06:52;4.07;;;1.33;;
1837;SDS011;918;50.796;6.772;2023-07-30T11:09:21;2.13;;;1.40;;
1837;SDS011;918;50.796;6.772;2023-07-30T11:11:47;2.67;;;1.50;;
1837;SDS011;918;50.796;6.772;2023-07-30T11:14:19;3.87;;;1.67;;
1837;SDS011;918;50.796;6.772;2023-07-30T11:16:49;1.60;;;1.30;;
1837;SDS011;918;50.796;6.772;2023-07-30T11:19:18;2.43;;;1.27;;
1837;SDS011;918;50.796;6.772;2023-07-30T11:21:44;2.30;;;1.27;;
1837;SDS011;918;50.796;6.772;2023-07-30T11:24:13;3.10;;;1.40;;
1837;SDS011;918;50.796;6.772;2023-07-30T11:26:38;1.33;;;1.10;;
1837;SDS011;918;50.796;6.772;2023-07-30T11:29:16;1.87;;;1.50;;
1837;SDS011;918;50.796;6.772;2023-07-30T11:31:42;2.67;;;1.33;;
1837;SDS011;918;50.796;6.772;2023-07-30T11:34:08;2.20;;;1.40;;
1837;SDS011;918;50.796;6.772;2023-07-30T11:36:34;1.57;;;1.20;;
1837;SDS011;918;50.796;6.772;2023-07-30T11:38:59;2.90;;;1.53;;
1837;SDS011;918;50.796;6.772;2023-07-30T11:41:24;2.80;;;1.50;;
1837;SDS011;918;50.796;6.772;2023-07-30T11:43:50;3.13;;;1.20;;
1837;SDS011;918;50.796;6.772;2023-07-30T11:46:17;1.50;;;1.20;;
1837;SDS011;918;50.796;6.772;2023-07-30T11:48:45;2.57;;;1.40;;
1837;SDS011;918;50.796;6.772;2023-07-30T11:51:27;6.23;;;1.60;;
1837;SDS011;918;50.796;6.772;2023-07-30T11:53:59;5.50;;;1.80;;
1837;SDS011;918;50.796;6.772;2023-07-30T11:56:27;2.60;;;1.40;;
1837;SDS011;918;50.796;6.772;2023-07-30T11:58:55;4.03;;;1.67;;
1837;SDS011;918;50.796;6.772;2023-07-30T12:01:22;3.77;;;1.30;;
1837;SDS011;918;50.796;6.772;2023-07-30T12:03:49;3.93;;;1.30;;
1837;SDS011;918;50.796;6.772;2023-07-30T12:06:14;1.87;;;1.33;;
1837;SDS011;918;50.796;6.772;2023-07-30T12:08:40;1.67;;;1.37;;
1837;SDS011;918;50.796;6.772;2023-07-30T12:11:06;4.00;;;2.33;;
1837;SDS011;918;50.796;6.772;2023-07-30T12:13:33;2.57;;;1.20;;
1837;SDS011;918;50.796;6.772;2023-07-30T12:15:59;3.50;;;1.30;;
1837;SDS011;918;50.796;6.772;2023-07-30T12:18:25;2.67;;;1.60;;
1837;SDS011;918;50.796;6.772;2023-07-30T12:20:51;1.83;;;1.60;;
1837;SDS011;918;50.796;6.772;2023-07-30T12:23:17;3.10;;;1.50;;
1837;SDS011;918;50.796;6.772;2023-07-30T12:25:42;2.83;;;1.50;;
1837;SDS011;918;50.796;6.772;2023-07-30T12:28:08;4.00;;;1.70;;
1837;SDS011;918;50.796;6.772;2023-07-30T12:30:33;2.70;;;1.30;;
1837;SDS011;918;50.796;6.772;2023-07-30T12:33:00;3.87;;;1.67;;
1837;SDS011;918;50.796;6.772;2023-07-30T12:35:25;1.70;;;1.40;;
1837;SDS011;918;50.796;6.772;2023-07-30T12:37:50;2.40;;;1.77;;
1837;SDS011;918;50.796;6.772;2023-07-30T12:40:16;3.43;;;1.60;;
1837;SDS011;918;50.796;6.772;2023-07-30T12:42:41;3.90;;;1.97;;
1837;SDS011;918;50.796;6.772;2023-07-30T12:45:07;2.70;;;1.73;;
1837;SDS011;918;50.796;6.772;2023-07-30T12:47:32;3.47;;;1.40;;
1837;SDS011;918;50.796;6.772;2023-07-30T12:50:00;4.00;;;1.40;;
1837;SDS011;918;50.796;6.772;2023-07-30T12:52:26;3.90;;;1.60;;
1837;SDS011;918;50.796;6.772;2023-07-30T12:54:51;2.80;;;1.67;;
1837;SDS011;918;50.796;6.772;2023-07-30T12:57:16;2.67;;;1.40;;
1837;SDS011;918;50.796;6.772;2023-07-30T12:59:42;2.50;;;1.57;;
1837;SDS011;918;50.796;6.772;2023-07-30T13:02:07;5.93;;;1.90;;
1837;SDS011;918;50.796;6.772;2023-07-30T13:04:32;4.77;;;1.50;;
1837;SDS011;918;50.796;6.772;2023-07-30T13:06:57;3.73;;;1.43;;
1837;SDS011;918;50.796;6.772;2023-07-30T13:09:23;2.53;;;1.67;;
1837;SDS011;918;50.796;6.772;2023-07-30T13:11:48;3.20;;;1.60;;
1837;SDS011;918;50.796;6.772;2023-07-30T13:14:13;3.03;;;2.73;;
1837;SDS011;918;50.796;6.772;2023-07-30T13:16:38;2.13;;;1.33;;
1837;SDS011;918;50.796;6.772;2023-07-30T13:19:03;2.93;;;1.67;;
1837;SDS011;918;50.796;6.772;2023-07-30T13:21:29;3.00;;;1.93;;
1837;SDS011;918;50.796;6.772;2023-07-30T13:23:54;2.80;;;1.87;;
1837;SDS011;918;50.796;6.772;2023-07-30T13:26:19;2.70;;;1.77;;
1837;SDS011;918;50.796;6.772;2023-07-30T13:28:45;3.73;;;1.50;;
1837;SDS011;918;50.796;6.772;2023-07-30T13:31:10;3.43;;;1.83;;
1837;SDS011;918;50.796;6.772;2023-07-30T13:33:35;1.63;;;1.53;;
1837;SDS011;918;50.796;6.772;2023-07-30T13:36:01;1.67;;;1.57;;
1837;SDS011;918;50.796;6.772;2023-07-30T13:38:27;2.10;;;1.50;;
1837;SDS011;918;50.796;6.772;2023-07-30T13:40:52;7.43;;;2.03;;
1837;SDS011;918;50.796;6.772;2023-07-30T13:43:17;3.63;;;1.83;;
1837;SDS011;918;50.796;6.772;2023-07-30T13:45:43;2.50;;;1.40;;
1837;SDS011;918;50.796;6.772;2023-07-30T13:48:08;2.83;;;1.60;;
1837;SDS011;918;50.796;6.772;2023-07-30T13:50:34;3.10;;;1.60;;
1837;SDS011;918;50.796;6.772;2023-07-30T13:52:59;3.50;;;1.93;;
1837;SDS011;918;50.796;6.772;2023-07-30T13:55:25;2.90;;;1.60;;
1837;SDS011;918;50.796;6.772;2023-07-30T13:57:50;1.80;;;1.20;;
1837;SDS011;918;50.796;6.772;2023-07-30T14:00:15;4.73;;;2.10;;
1837;SDS011;918;50.796;6.772;2023-07-30T14:02:41;3.90;;;1.73;;
1837;SDS011;918;50.796;6.772;2023-07-30T14:05:07;2.93;;;1.50;;
1837;SDS011;918;50.796;6.772;2023-07-30T14:07:32;3.00;;;1.50;;
1837;SDS011;918;50.796;6.772;2023-07-30T14:09:57;5.47;;;2.00;;
1837;SDS011;918;50.796;6.772;2023-07-30T14:12:23;3.80;;;1.80;;
1837;SDS011;918;50.796;6.772;2023-07-30T14:14:48;2.57;;;1.47;;
1837;SDS011;918;50.796;6.772;2023-07-30T14:17:13;2.17;;;1.47;;
1837;SDS011;918;50.796;6.772;2023-07-30T14:19:38;1.93;;;1.33;;
1837;SDS011;918;50.796;6.772;2023-07-30T14:22:04;1.80;;;1.30;;
1837;SDS011;918;50.796;6.772;2023-07-30T14:24:29;4.27;;;1.77;;
1837;SDS011;918;50.796;6.772;2023-07-30T14:26:54;2.43;;;1.57;;
1837;SDS011;918;50.796;6.772;2023-07-30T14:29:20;2.70;;;1.97;;
1837;SDS011;918;50.796;6.772;2023-07-30T14:31:45;4.47;;;1.80;;
1837;SDS011;918;50.796;6.772;2023-07-30T14:34:10;2.27;;;1.60;;
1837;SDS011;918;50.796;6.772;2023-07-30T14:36:36;3.57;;;1.60;;
1837;SDS011;918;50.796;6.772;2023-07-30T14:39:01;2.97;;;1.60;;
1837;SDS011;918;50.796;6.772;2023-07-30T14:41:26;2.80;;;1.53;;
1837;SDS011;918;50.796;6.772;2023-07-30T14:43:51;2.00;;;1.50;;
1837;SDS011;918;50.796;6.772;2023-07-30T14:46:16;2.43;;;1.40;;
1837;SDS011;918;50.796;6.772;2023-07-30T14:48:42;2.90;;;1.50;;
1837;SDS011;918;50.796;6.772;2023-07-30T14:51:08;2.47;;;1.33;;
1837;SDS011;918;50.796;6.772;2023-07-30T14:53:34;3.13;;;1.50;;
1837;SDS011;918;50.796;6.772;2023-07-30T14:55:59;2.93;;;1.53;;
1837;SDS011;918;50.796;6.772;2023-07-30T14:58:25;3.83;;;1.83;;
1837;SDS011;918;50.796;6.772;2023-07-30T15:00:50;2.77;;;1.57;;
1837;SDS011;918;50.796;6.772;2023-07-30T15:03:15;4.17;;;2.00;;
1837;SDS011;918;50.796;6.772;2023-07-30T15:05:40;2.70;;;1.53;;
1837;SDS011;918;50.796;6.772;2023-07-30T15:08:06;1.73;;;1.53;;
1837;SDS011;918;50.796;6.772;2023-07-30T15:10:31;3.30;;;1.80;;
1837;SDS011;918;50.796;6.772;2023-07-30T15:12:56;4.57;;;2.23;;
1837;SDS011;918;50.796;6.772;2023-07-30T15:15:22;4.80;;;1.83;;
1837;SDS011;918;50.796;6.772;2023-07-30T15:17:47;3.87;;;2.40;;
1837;SDS011;918;50.796;6.772;2023-07-30T15:20:12;4.73;;;2.30;;